Time,TemperatureF,DewpointF,PressureIn,WindDirection,WindDirectionDegrees,WindSpeedMPH,WindSpeedGustMPH,Humidity,HourlyPrecipIn,Conditions,Clouds,dailyrainin,SolarRadiationWatts/m^2,SoftwareType,DateUTC
2013-12-06 00:09:00,-10.2,-15.0,30.70,WNW,284,1.0,2.0,79,0.00,,,0.00,0,weatherlink.com 1.10,2013-12-06 07:09:00,
2013-12-06 00:23:00,-11.1,-16.0,30.70,WNW,284,0.0,0.0,79,0.00,,,0.00,0,weatherlink.com 1.10,2013-12-06 07:23:00,
2013-12-06 00:39:00,-12.2,-17.0,30.70,WNW,284,0.0,1.0,79,0.00,,,0.00,0,weatherlink.com 1.10,2013-12-06 07:39:00,
2013-12-06 00:54:00,-13.6,-18.0,30.70,WNW,284,1.0,2.0,79,0.00,,,0.00,0,weatherlink.com 1.10,2013-12-06 07:54:00,
2013-12-06 01:08:00,-14.3,-19.0,30.69,WNW,284,0.0,1.0,80,0.00,,,0.00,0,weatherlink.com 1.10,2013-12-06 08:08:00,
2013-12-06 01:23:00,-13.9,-18.0,30.70,WNW,284,0.0,2.0,80,0.00,,,0.00,0,weatherlink.com 1.10,2013-12-06 08:23:00,
2013-12-06 01:38:00,-14.4,-19.0,30.70,WNW,284,0.0,1.0,80,0.00,,,0.00,0,weatherlink.com 1.10,2013-12-06 08:38:00,
2013-12-06 01:53:00,-15.1,-20.0,30.71,WNW,284,0.0,1.0,79,0.00,,,0.00,0,weatherlink.com 1.10,2013-12-06 08:53:00,
2013-12-06 02:08:00,-15.6,-20.0,30.71,WNW,284,0.0,1.0,79,0.00,,,0.00,0,weatherlink.com 1.10,2013-12-06 09:08:00,
2013-12-06 02:23:00,-16.6,-21.0,30.72,WNW,284,0.0,2.0,79,0.00,,,0.00,0,weatherlink.com 1.10,2013-12-06 09:23:00,
2013-12-06 02:38:00,-17.4,-22.0,30.72,WNW,284,1.0,3.0,78,0.00,,,0.00,0,weatherlink.com 1.10,2013-12-06 09:38:00,
2013-12-06 02:53:00,-17.2,-22.0,30.72,WNW,284,0.0,3.0,79,0.00,,,0.00,0,weatherlink.com 1.10,2013-12-06 09:53:00,
2013-12-06 03:08:00,-17.8,-22.0,30.73,WNW,284,0.0,2.0,79,0.00,,,0.00,0,weatherlink.com 1.10,2013-12-06 10:08:00,
2013-12-06 03:23:00,-18.6,-23.0,30.73,WNW,284,0.0,1.0,78,0.00,,,0.00,0,weatherlink.com 1.10,2013-12-06 10:23:00,
2013-12-06 03:38:00,-19.2,-24.0,30.73,WNW,284,0.0,1.0,78,0.00,,,0.00,0,weatherlink.com 1.10,2013-12-06 10:38:00,
2013-12-06 03:53:00,-19.4,-24.0,30.73,WNW,284,0.0,2.0,78,0.00,,,0.00,0,weatherlink.com 1.10,2013-12-06 10:53:00,
2013-12-06 04:08:00,-19.6,-24.0,30.73,WNW,284,0.0,0.0,79,0.00,,,0.00,0,weatherlink.com 1.10,2013-12-06 11:08:00,
2013-12-06 04:22:00,-19.7,-24.0,30.74,WNW,284,0.0,1.0,78,0.00,,,0.00,0,weatherlink.com 1.10,2013-12-06 11:22:00,
2013-12-06 04:37:00,-19.6,-24.0,30.74,WNW,284,0.0,2.0,79,0.00,,,0.00,0,weatherlink.com 1.10,2013-12-06 11:37:00,
2013-12-06 04:52:00,-19.8,-25.0,30.74,WNW,284,0.0,1.0,78,0.00,,,0.00,0,weatherlink.com 1.10,2013-12-06 11:52:00,
2013-12-06 05:07:00,-20.1,-25.0,30.75,WNW,284,0.0,0.0,78,0.00,,,0.00,0,weatherlink.com 1.10,2013-12-06 12:07:00,
2013-12-06 05:22:00,-20.6,-25.0,30.75,WNW,284,0.0,3.0,78,0.00,,,0.00,0,weatherlink.com 1.10,2013-12-06 12:22:00,
2013-12-06 05:37:00,-20.6,-25.0,30.75,WNW,284,0.0,1.0,78,0.00,,,0.00,0,weatherlink.com 1.10,2013-12-06 12:37:00,
2013-12-06 05:52:00,-21.1,-26.0,30.75,WNW,284,0.0,1.0,78,0.00,,,0.00,0,weatherlink.com 1.10,2013-12-06 12:52:00,
2013-12-06 06:07:00,-21.7,-27.0,30.76,WNW,284,0.0,3.0,77,0.00,,,0.00,0,weatherlink.com 1.10,2013-12-06 13:07:00,
2013-12-06 06:22:00,-22.1,-27.0,30.77,WNW,284,0.0,2.0,78,0.00,,,0.00,0,weatherlink.com 1.10,2013-12-06 13:22:00,
2013-12-06 06:37:00,-22.0,-27.0,30.77,WNW,284,0.0,2.0,78,0.00,,,0.00,0,weatherlink.com 1.10,2013-12-06 13:37:00,
2013-12-06 06:51:00,-22.4,-27.0,30.77,WNW,284,0.0,2.0,77,0.00,,,0.00,0,weatherlink.com 1.10,2013-12-06 13:51:00,
2013-12-06 07:07:00,-22.9,-28.0,30.78,WNW,284,0.0,2.0,77,0.00,,,0.00,0,weatherlink.com 1.10,2013-12-06 14:07:00,
2013-12-06 07:21:00,-23.3,-28.0,30.78,WNW,284,0.0,3.0,77,0.00,,,0.00,0,weatherlink.com 1.10,2013-12-06 14:21:00,
2013-12-06 07:36:00,-23.4,-28.0,30.79,WNW,284,0.0,3.0,77,0.00,,,0.00,0,weatherlink.com 1.10,2013-12-06 14:36:00,
2013-12-06 07:51:00,-23.6,-28.0,30.79,WNW,284,0.0,2.0,77,0.00,,,0.00,0,weatherlink.com 1.10,2013-12-06 14:51:00,
2013-12-06 08:11:00,-23.9,-29.0,30.79,WNW,284,0.0,2.0,77,0.00,,,0.00,19,weatherlink.com 1.10,2013-12-06 15:11:00,
2013-12-06 08:25:00,-23.1,-28.0,30.80,WNW,284,1.0,1.0,78,0.00,,,0.00,30,weatherlink.com 1.10,2013-12-06 15:25:00,
2013-12-06 08:40:00,-21.3,-26.0,30.80,WNW,284,0.0,1.0,79,0.00,,,0.00,49,weatherlink.com 1.10,2013-12-06 15:40:00,
2013-12-06 08:55:00,-19.5,-24.0,30.81,WNW,284,0.0,0.0,80,0.00,,,0.00,77,weatherlink.com 1.10,2013-12-06 15:55:00,
2013-12-06 09:11:00,-16.6,-21.0,30.82,WNW,284,0.0,1.0,81,0.00,,,0.00,127,weatherlink.com 1.10,2013-12-06 16:11:00,
2013-12-06 09:25:00,-14.1,-18.0,30.82,ENE,72,1.0,2.0,80,0.00,,,0.00,183,weatherlink.com 1.10,2013-12-06 16:25:00,
2013-12-06 09:41:00,-12.7,-17.0,30.82,SSE,148,0.0,2.0,79,0.00,,,0.00,221,weatherlink.com 1.10,2013-12-06 16:41:00,
2013-12-06 09:56:00,-11.3,-16.0,30.83,NE,41,2.0,2.0,79,0.00,,,0.00,264,weatherlink.com 1.10,2013-12-06 16:56:00,
2013-12-06 10:11:00,-10.4,-15.0,30.83,NE,51,0.0,5.0,78,0.00,,,0.00,304,weatherlink.com 1.10,2013-12-06 17:11:00,
2013-12-06 10:26:00,-10.1,-15.0,30.84,ENE,77,3.0,4.0,78,0.00,,,0.00,329,weatherlink.com 1.10,2013-12-06 17:26:00,
2013-12-06 10:41:00,-9.9,-15.0,30.84,ENE,68,3.0,4.0,78,0.00,,,0.00,355,weatherlink.com 1.10,2013-12-06 17:41:00,
2013-12-06 10:55:00,-9.9,-15.0,30.83,NE,36,3.0,5.0,78,0.00,,,0.00,394,weatherlink.com 1.10,2013-12-06 17:55:00,
2013-12-06 11:11:00,-9.0,-14.0,30.83,NE,49,0.0,4.0,78,0.00,,,0.00,406,weatherlink.com 1.10,2013-12-06 18:11:00,
2013-12-06 11:25:00,-8.8,-14.0,30.82,NNW,342,0.0,4.0,77,0.00,,,0.00,431,weatherlink.com 1.10,2013-12-06 18:25:00,
2013-12-06 11:41:00,-9.0,-14.0,30.82,ENE,57,1.0,4.0,77,0.00,,,0.00,450,weatherlink.com 1.10,2013-12-06 18:41:00,
2013-12-06 11:55:00,-8.8,-14.0,30.81,ENE,59,1.0,4.0,78,0.00,,,0.00,450,weatherlink.com 1.10,2013-12-06 18:55:00,
2013-12-06 12:10:00,-9.0,-14.0,30.82,ENE,63,1.0,4.0,77,0.00,,,0.00,464,weatherlink.com 1.10,2013-12-06 19:10:00,
2013-12-06 12:25:00,-9.7,-15.0,30.82,NNE,16,1.0,6.0,77,0.00,,,0.00,461,weatherlink.com 1.10,2013-12-06 19:25:00,
2013-12-06 12:40:00,-10.0,-15.0,30.82,NE,53,2.0,4.0,78,0.00,,,0.00,432,weatherlink.com 1.10,2013-12-06 19:40:00,
2013-12-06 12:54:00,-10.6,-16.0,30.82,NE,55,3.0,4.0,77,0.00,,,0.00,445,weatherlink.com 1.10,2013-12-06 19:54:00,
2013-12-06 13:09:00,-11.2,-16.0,30.82,NE,50,1.0,5.0,78,0.00,,,0.00,438,weatherlink.com 1.10,2013-12-06 20:09:00,
2013-12-06 13:23:00,-11.1,-16.0,30.82,ENE,68,1.0,4.0,78,0.00,,,0.00,441,weatherlink.com 1.10,2013-12-06 20:23:00,
2013-12-06 13:38:00,-11.2,-16.0,30.82,ENE,74,0.0,4.0,78,0.00,,,0.00,431,weatherlink.com 1.10,2013-12-06 20:38:00,
2013-12-06 13:53:00,-10.8,-16.0,30.82,NE,36,0.0,3.0,78,0.00,,,0.00,450,weatherlink.com 1.10,2013-12-06 20:53:00,
2013-12-06 14:08:00,-10.6,-16.0,30.82,NNE,13,0.0,4.0,78,0.00,,,0.00,420,weatherlink.com 1.10,2013-12-06 21:08:00,
2013-12-06 14:23:00,-10.9,-16.0,30.82,ENE,67,1.0,3.0,78,0.00,,,0.00,374,weatherlink.com 1.10,2013-12-06 21:23:00,
2013-12-06 14:38:00,-10.6,-16.0,30.83,ENE,61,0.0,2.0,78,0.00,,,0.00,353,weatherlink.com 1.10,2013-12-06 21:38:00,
2013-12-06 14:52:00,-10.8,-16.0,30.83,NE,55,0.0,3.0,78,0.00,,,0.00,306,weatherlink.com 1.10,2013-12-06 21:52:00,
2013-12-06 15:07:00,-11.5,-16.0,30.83,NNW,331,0.0,2.0,78,0.00,,,0.00,269,weatherlink.com 1.10,2013-12-06 22:07:00,
2013-12-06 15:22:00,-11.9,-17.0,30.84,NNW,339,0.0,1.0,78,0.00,,,0.00,47,weatherlink.com 1.10,2013-12-06 22:22:00,
2013-12-06 15:37:00,-12.8,-18.0,30.84,NNW,339,0.0,1.0,78,0.00,,,0.00,35,weatherlink.com 1.10,2013-12-06 22:37:00,
2013-12-06 15:51:00,-13.3,-18.0,30.85,NNW,339,0.0,0.0,78,0.00,,,0.00,25,weatherlink.com 1.10,2013-12-06 22:51:00,
2013-12-06 16:06:00,-14.2,-19.0,30.86,NNW,339,0.0,0.0,78,0.00,,,0.00,14,weatherlink.com 1.10,2013-12-06 23:06:00,
2013-12-06 16:21:00,-16.0,-21.0,30.86,NNW,339,0.0,0.0,77,0.00,,,0.00,9,weatherlink.com 1.10,2013-12-06 23:21:00,
2013-12-06 16:36:00,-17.2,-22.0,30.86,NNW,339,0.0,0.0,77,0.00,,,0.00,0,weatherlink.com 1.10,2013-12-06 23:36:00,
2013-12-06 16:50:00,-18.8,-24.0,30.86,NNW,339,0.0,1.0,77,0.00,,,0.00,0,weatherlink.com 1.10,2013-12-06 23:50:00,
2013-12-06 17:05:00,-20.0,-25.0,30.87,NNW,339,0.0,1.0,77,0.00,,,0.00,0,weatherlink.com 1.10,2013-12-07 00:05:00,
2013-12-06 17:20:00,-20.7,-26.0,30.87,NNW,339,0.0,1.0,77,0.00,,,0.00,0,weatherlink.com 1.10,2013-12-07 00:20:00,
2013-12-06 17:35:00,-21.0,-26.0,30.88,NNW,339,0.0,1.0,77,0.00,,,0.00,0,weatherlink.com 1.10,2013-12-07 00:35:00,
2013-12-06 17:49:00,-21.2,-26.0,30.88,NNW,339,0.0,0.0,78,0.00,,,0.00,0,weatherlink.com 1.10,2013-12-07 00:49:00,
2013-12-06 18:04:00,-21.5,-26.0,30.89,NNW,339,0.0,1.0,77,0.00,,,0.00,0,weatherlink.com 1.10,2013-12-07 01:04:00,
2013-12-06 18:19:00,-21.9,-27.0,30.89,NNW,339,0.0,0.0,77,0.00,,,0.00,0,weatherlink.com 1.10,2013-12-07 01:19:00,
2013-12-06 18:34:00,-22.2,-27.0,30.89,NNW,339,0.0,2.0,77,0.00,,,0.00,0,weatherlink.com 1.10,2013-12-07 01:34:00,
2013-12-06 18:49:00,-22.6,-28.0,30.90,NNW,339,0.0,1.0,77,0.00,,,0.00,0,weatherlink.com 1.10,2013-12-07 01:49:00,
2013-12-06 19:04:00,-23.0,-28.0,30.91,NNW,339,0.0,1.0,77,0.00,,,0.00,0,weatherlink.com 1.10,2013-12-07 02:04:00,
2013-12-06 19:18:00,-23.0,-28.0,30.91,NNW,339,0.0,0.0,77,0.00,,,0.00,0,weatherlink.com 1.10,2013-12-07 02:18:00,
2013-12-06 19:33:00,-23.0,-28.0,30.91,NNW,339,0.0,2.0,77,0.00,,,0.00,0,weatherlink.com 1.10,2013-12-07 02:33:00,
2013-12-06 19:48:00,-23.1,-28.0,30.91,NNW,339,1.0,1.0,77,0.00,,,0.00,0,weatherlink.com 1.10,2013-12-07 02:48:00,
2013-12-06 20:03:00,-22.7,-27.0,30.91,NNW,339,0.0,2.0,78,0.00,,,0.00,0,weatherlink.com 1.10,2013-12-07 03:03:00,
2013-12-06 20:18:00,-22.6,-28.0,30.91,NNW,339,1.0,2.0,77,0.00,,,0.00,0,weatherlink.com 1.10,2013-12-07 03:18:00,
2013-12-06 20:33:00,-22.8,-28.0,30.92,NNW,339,0.0,0.0,77,0.00,,,0.00,0,weatherlink.com 1.10,2013-12-07 03:33:00,
2013-12-06 20:47:00,-23.2,-28.0,30.92,NNW,338,0.0,1.0,77,0.00,,,0.00,0,weatherlink.com 1.10,2013-12-07 03:47:00,
2013-12-06 21:02:00,-22.9,-28.0,30.92,NNW,338,0.0,1.0,78,0.00,,,0.00,0,weatherlink.com 1.10,2013-12-07 04:02:00,
2013-12-06 21:17:00,-23.0,-28.0,30.92,NNW,338,1.0,2.0,77,0.00,,,0.00,0,weatherlink.com 1.10,2013-12-07 04:17:00,
2013-12-06 21:32:00,-23.0,-28.0,30.92,NNW,338,0.0,2.0,77,0.00,,,0.00,0,weatherlink.com 1.10,2013-12-07 04:32:00,
2013-12-06 21:46:00,-23.4,-28.0,30.92,NNW,338,1.0,1.0,77,0.00,,,0.00,0,weatherlink.com 1.10,2013-12-07 04:46:00,
2013-12-06 22:02:00,-23.4,-28.0,30.92,NNW,338,0.0,1.0,77,0.00,,,0.00,0,weatherlink.com 1.10,2013-12-07 05:02:00,
2013-12-06 22:16:00,-23.5,-28.0,30.92,NNW,338,0.0,0.0,77,0.00,,,0.00,0,weatherlink.com 1.10,2013-12-07 05:16:00,
2013-12-06 22:31:00,-23.6,-28.0,30.92,NNW,338,0.0,1.0,77,0.00,,,0.00,0,weatherlink.com 1.10,2013-12-07 05:31:00,
2013-12-06 22:46:00,-24.2,-29.0,30.92,NNW,338,0.0,2.0,76,0.00,,,0.00,0,weatherlink.com 1.10,2013-12-07 05:46:00,
2013-12-06 23:01:00,-24.8,-30.0,30.92,NNW,338,1.0,2.0,76,0.00,,,0.00,0,weatherlink.com 1.10,2013-12-07 06:01:00,
2013-12-06 23:16:00,-24.9,-30.0,30.92,West,281,1.0,3.0,76,0.00,,,0.00,0,weatherlink.com 1.10,2013-12-07 06:16:00,
2013-12-06 23:31:00,-24.8,-30.0,30.93,West,281,2.0,2.0,77,0.00,,,0.00,0,weatherlink.com 1.10,2013-12-07 06:31:00,
2013-12-06 23:45:00,-24.7,-30.0,30.93,West,263,0.0,3.0,77,0.00,,,0.00,0,weatherlink.com 1.10,2013-12-07 06:45:00,